createdAt,value
2018-11-23T00:00:16.393Z,1.50
2018-11-23T00:02:45.893Z,1.60
2018-11-23T00:05:14.376Z,1.60
2018-11-23T00:07:43.316Z,1.60
2018-11-23T00:10:13.684Z,1.50
2018-11-23T00:12:42.233Z,1.50
2018-11-23T00:15:12.807Z,1.50
2018-11-23T00:17:41.379Z,1.50
2018-11-23T00:20:12.100Z,1.40
2018-11-23T00:22:40.580Z,1.30
2018-11-23T00:25:11.003Z,1.30
2018-11-23T00:27:39.872Z,1.30
2018-11-23T00:30:10.958Z,1.30
2018-11-23T00:32:39.722Z,1.30
2018-11-23T00:35:09.945Z,1.20
2018-11-23T00:37:38.453Z,1.20
2018-11-23T00:40:09.173Z,1.20
2018-11-23T00:42:37.656Z,1.10
2018-11-23T00:45:07.839Z,1.10
2018-11-23T00:47:36.285Z,1.10
2018-11-23T00:50:05.081Z,1.00
2018-11-23T00:52:33.496Z,1.00
2018-11-23T00:55:01.948Z,1.00
2018-11-23T00:57:30.349Z,1.00
2018-11-23T00:59:58.751Z,0.90
2018-11-23T01:02:27.208Z,0.90
2018-11-23T01:04:55.619Z,0.90
2018-11-23T01:07:24.077Z,0.90
2018-11-23T01:09:52.488Z,1.00
2018-11-23T01:12:20.926Z,1.00
2018-11-23T01:14:49.349Z,1.00
2018-11-23T01:17:17.772Z,1.10
2018-11-23T01:19:46.233Z,1.10
2018-11-23T01:22:14.647Z,1.10
2018-11-23T01:24:43.032Z,1.20
2018-11-23T01:27:11.448Z,1.20
2018-11-23T01:29:39.903Z,1.20
2018-11-23T01:32:08.307Z,1.20
2018-11-23T01:34:36.814Z,1.20
2018-11-23T01:37:05.248Z,1.10
2018-11-23T01:39:33.604Z,1.20
2018-11-23T01:42:01.998Z,1.10
2018-11-23T01:44:34.273Z,1.10
2018-11-23T01:47:02.672Z,1.00
2018-11-23T01:49:31.029Z,1.00
2018-11-23T01:51:59.408Z,1.00
2018-11-23T01:54:27.766Z,1.00
2018-11-23T01:56:56.144Z,1.00
2018-11-23T01:59:24.520Z,1.00
2018-11-23T02:01:52.906Z,1.00
2018-11-23T02:04:21.271Z,1.10
2018-11-23T02:06:49.652Z,1.10
2018-11-23T02:09:18.000Z,1.20
2018-11-23T02:11:46.376Z,1.20
2018-11-23T02:14:14.732Z,1.20
2018-11-23T02:16:43.110Z,1.20
2018-11-23T02:19:11.473Z,1.20
2018-11-23T02:21:39.819Z,1.20
2018-11-23T02:24:08.212Z,1.20
2018-11-23T02:26:36.600Z,1.20
2018-11-23T02:29:05.368Z,1.20
2018-11-23T02:31:33.824Z,1.20
2018-11-23T02:34:02.209Z,1.20
2018-11-23T02:36:30.575Z,1.20
2018-11-23T02:38:58.949Z,1.20
2018-11-23T02:41:27.361Z,1.20
2018-11-23T02:43:55.736Z,1.10
2018-11-23T02:46:24.104Z,1.10
2018-11-23T02:48:52.481Z,1.10
2018-11-23T02:51:20.843Z,1.00
2018-11-23T02:53:49.529Z,1.00
2018-11-23T02:56:18.090Z,1.00
2018-11-23T02:58:46.484Z,1.00
2018-11-23T03:01:14.840Z,0.90
2018-11-23T03:03:43.215Z,0.90
2018-11-23T03:06:11.576Z,0.90
2018-11-23T03:08:39.953Z,0.70
2018-11-23T03:11:08.313Z,0.70
2018-11-23T03:13:36.712Z,0.70
2018-11-23T03:16:05.113Z,0.70
2018-11-23T03:18:33.569Z,0.80
2018-11-23T03:21:01.937Z,0.80
2018-11-23T03:23:30.341Z,0.80
2018-11-23T03:25:58.709Z,0.80
2018-11-23T03:28:27.165Z,0.80
2018-11-23T03:30:55.522Z,0.80
2018-11-23T03:33:23.904Z,0.80
2018-11-23T03:35:52.297Z,0.80
2018-11-23T03:38:20.677Z,0.70
2018-11-23T03:40:49.037Z,0.70
2018-11-23T03:43:17.398Z,0.70
2018-11-23T03:45:45.764Z,0.70
2018-11-23T03:48:14.143Z,0.70
2018-11-23T03:50:42.554Z,0.70
2018-11-23T03:53:10.918Z,0.70
2018-11-23T03:55:39.321Z,0.70
2018-11-23T03:58:07.711Z,0.70
2018-11-23T04:00:36.063Z,0.50
2018-11-23T04:03:04.595Z,0.50
2018-11-23T04:05:33.020Z,0.60
2018-11-23T04:08:01.400Z,0.60
2018-11-23T04:10:29.819Z,0.60
2018-11-23T04:12:58.202Z,0.60
2018-11-23T04:15:26.567Z,0.60
2018-11-23T04:17:54.941Z,0.70
2018-11-23T04:20:23.297Z,0.70
2018-11-23T04:22:51.677Z,0.70
2018-11-23T04:25:20.045Z,0.80
2018-11-23T04:27:48.416Z,0.90
2018-11-23T04:30:17.584Z,0.90
2018-11-23T04:32:46.939Z,0.80
2018-11-23T04:35:16.628Z,0.80
2018-11-23T04:37:45.766Z,0.80
2018-11-23T04:40:14.780Z,0.90
2018-11-23T04:42:43.427Z,0.90
2018-11-23T04:45:12.105Z,1.00
2018-11-23T04:47:40.677Z,0.90
2018-11-23T04:50:10.716Z,1.00
2018-11-23T04:52:39.097Z,1.00
2018-11-23T04:55:08.177Z,0.90
2018-11-23T04:57:36.588Z,1.00
2018-11-23T05:00:06.684Z,1.00
2018-11-23T05:02:35.063Z,0.90
2018-11-23T05:05:03.449Z,1.00
2018-11-23T05:07:31.837Z,1.00
2018-11-23T05:10:00.199Z,0.90
2018-11-23T05:12:28.567Z,0.90
2018-11-23T05:14:56.961Z,0.90
2018-11-23T05:17:25.353Z,0.90
2018-11-23T05:19:53.732Z,0.90
2018-11-23T05:22:22.093Z,0.80
2018-11-23T05:24:50.477Z,0.90
2018-11-23T05:27:18.853Z,0.90
2018-11-23T05:29:47.265Z,0.80
2018-11-23T05:32:15.661Z,0.80
2018-11-23T05:34:44.087Z,0.80
2018-11-23T05:37:12.495Z,0.80
2018-11-23T05:39:40.923Z,0.80
2018-11-23T05:42:09.349Z,0.80
2018-11-23T05:44:37.777Z,0.80
2018-11-23T05:47:06.697Z,0.80
2018-11-23T05:49:35.103Z,0.80
2018-11-23T05:52:03.501Z,0.80
2018-11-23T05:54:31.928Z,0.80
2018-11-23T05:57:01.365Z,0.80
2018-11-23T05:59:29.949Z,0.70
2018-11-23T06:01:58.397Z,0.70
2018-11-23T06:04:26.808Z,0.70
2018-11-23T06:06:55.276Z,0.60
2018-11-23T06:09:23.700Z,0.60
2018-11-23T06:11:52.107Z,0.60
2018-11-23T06:14:20.528Z,0.70
2018-11-23T06:16:48.944Z,0.60
2018-11-23T06:19:17.355Z,0.70
2018-11-23T06:21:45.765Z,0.60
2018-11-23T06:24:14.175Z,0.60
2018-11-23T06:26:42.573Z,0.60
2018-11-23T06:29:10.992Z,0.50
2018-11-23T06:31:39.437Z,0.60
2018-11-23T06:34:07.881Z,0.60
2018-11-23T06:36:36.296Z,0.50
2018-11-23T06:39:06.419Z,0.50
2018-11-23T06:41:34.805Z,0.60
2018-11-23T06:44:03.221Z,0.60
2018-11-23T06:46:31.581Z,0.60
2018-11-23T06:48:59.952Z,0.70
2018-11-23T06:51:28.295Z,0.70
2018-11-23T06:53:56.672Z,0.70
2018-11-23T06:56:25.024Z,0.70
2018-11-23T06:58:53.421Z,0.80
2018-11-23T07:01:21.776Z,0.80
2018-11-23T07:03:50.176Z,0.80
2018-11-23T07:06:18.551Z,0.60
2018-11-23T07:08:52.363Z,0.50
2018-11-23T07:11:15.412Z,0.60
2018-11-23T07:13:43.769Z,0.70
2018-11-23T07:16:12.153Z,0.70
2018-11-23T07:18:40.526Z,0.80
2018-11-23T07:21:08.892Z,0.80
2018-11-23T07:23:37.256Z,0.80
2018-11-23T07:26:05.783Z,0.70
2018-11-23T07:28:34.143Z,0.80
2018-11-23T07:31:02.682Z,0.80
2018-11-23T07:33:30.917Z,0.80
2018-11-23T07:35:59.355Z,0.90
2018-11-23T07:38:27.816Z,0.90
2018-11-23T07:41:07.361Z,1.00
2018-11-23T07:43:35.774Z,1.00
2018-11-23T07:46:04.205Z,1.10
2018-11-23T07:48:32.622Z,1.20
2018-11-23T07:51:01.056Z,1.30
2018-11-23T07:53:29.457Z,1.40
2018-11-23T07:55:57.881Z,1.40
2018-11-23T07:58:26.289Z,1.40
2018-11-23T08:00:54.837Z,1.40
2018-11-23T08:03:23.242Z,1.50
2018-11-23T08:05:51.659Z,1.50
2018-11-23T08:08:20.056Z,1.50
2018-11-23T08:10:47.705Z,1.60
2018-11-23T08:13:16.097Z,1.60
2018-11-23T08:15:44.528Z,1.60
2018-11-23T08:18:12.929Z,1.70
2018-11-23T08:20:41.381Z,1.80
2018-11-23T08:23:09.789Z,1.80
2018-11-23T08:25:38.200Z,1.90
2018-11-23T08:28:06.620Z,1.90
2018-11-23T08:30:35.116Z,2.00
2018-11-23T08:33:03.556Z,2.10
2018-11-23T08:35:31.961Z,2.20
2018-11-23T08:38:00.326Z,2.20
2018-11-23T08:40:28.725Z,2.40
2018-11-23T08:42:57.504Z,2.40
2018-11-23T08:45:26.922Z,2.50
2018-11-23T08:47:55.286Z,2.60
2018-11-23T08:50:25.919Z,2.80
2018-11-23T08:52:54.425Z,2.90
2018-11-23T08:55:23.164Z,2.90
2018-11-23T08:57:51.528Z,3.00
2018-11-23T09:00:22.365Z,3.10
2018-11-23T09:02:52.236Z,3.20
2018-11-23T09:05:21.512Z,3.30
2018-11-23T09:07:51.037Z,3.40
2018-11-23T09:10:21.907Z,3.50
2018-11-23T09:12:51.889Z,3.60
2018-11-23T09:15:20.280Z,3.60
2018-11-23T09:17:48.861Z,3.70
2018-11-23T09:20:17.721Z,3.70
2018-11-23T09:22:46.103Z,3.80
2018-11-23T09:25:16.029Z,3.70
2018-11-23T09:27:44.461Z,3.70
2018-11-23T09:30:15.593Z,3.80
2018-11-23T09:32:44.447Z,3.90
2018-11-23T09:35:12.903Z,4.00
2018-11-23T09:37:41.732Z,4.10
2018-11-23T09:40:12.868Z,4.20
2018-11-23T09:42:41.556Z,4.30
2018-11-23T09:45:12.197Z,4.30
2018-11-23T09:47:40.634Z,4.40
2018-11-23T09:50:11.593Z,4.40
2018-11-23T09:52:40.287Z,4.50
2018-11-23T09:55:09.123Z,4.50
2018-11-23T09:57:37.864Z,4.50
2018-11-23T10:00:10.213Z,4.40
2018-11-23T10:02:39.139Z,4.30
2018-11-23T10:05:07.997Z,4.40
2018-11-23T10:07:36.416Z,4.60
2018-11-23T10:10:06.039Z,4.70
2018-11-23T10:12:34.508Z,4.80
2018-11-23T10:15:02.984Z,4.90
2018-11-23T10:17:31.396Z,5.00
2018-11-23T10:19:59.845Z,5.10
2018-11-23T10:22:28.266Z,5.20
2018-11-23T10:24:56.701Z,5.20
2018-11-23T10:27:25.175Z,5.40
2018-11-23T10:29:55.357Z,5.30
2018-11-23T10:32:22.090Z,5.40
2018-11-23T10:34:50.542Z,5.50
2018-11-23T10:37:18.985Z,5.40
2018-11-23T10:39:47.396Z,5.40
2018-11-23T10:42:15.838Z,5.40
2018-11-23T10:44:44.268Z,5.50
2018-11-23T10:47:12.717Z,5.60
2018-11-23T10:49:41.184Z,5.50
2018-11-23T10:52:09.661Z,5.60
2018-11-23T10:54:38.080Z,5.70
2018-11-23T10:57:06.862Z,5.80
2018-11-23T10:59:35.328Z,5.70
2018-11-23T11:02:08.030Z,5.80
2018-11-23T11:04:41.889Z,5.80
2018-11-23T11:07:10.732Z,5.90
2018-11-23T11:09:39.384Z,6.00
2018-11-23T11:12:07.828Z,6.00
2018-11-23T11:14:36.325Z,6.00
2018-11-23T11:17:04.815Z,6.10
2018-11-23T11:19:33.225Z,6.20
2018-11-23T11:22:01.640Z,6.30
2018-11-23T11:24:30.060Z,6.40
2018-11-23T11:26:58.513Z,6.40
2018-11-23T11:29:26.920Z,6.50
2018-11-23T11:31:55.360Z,6.60
2018-11-23T11:34:23.776Z,6.70
2018-11-23T11:36:52.225Z,6.70
2018-11-23T11:39:20.648Z,6.80
2018-11-23T11:41:49.067Z,6.80
2018-11-23T11:44:17.491Z,6.80
2018-11-23T11:46:45.908Z,6.80
2018-11-23T11:49:14.327Z,7.00
2018-11-23T11:51:42.745Z,7.10
2018-11-23T11:54:11.160Z,7.20
2018-11-23T11:56:39.568Z,7.30
2018-11-23T11:59:07.987Z,7.30
2018-11-23T12:01:36.509Z,7.40
2018-11-23T12:04:05.048Z,7.50
2018-11-23T12:06:33.459Z,7.50
2018-11-23T12:09:01.905Z,7.60
2018-11-23T12:11:30.320Z,7.70
2018-11-23T12:13:58.749Z,7.80
2018-11-23T12:16:27.164Z,7.80
2018-11-23T12:18:55.600Z,7.90
2018-11-23T12:21:24.012Z,8.00
2018-11-23T12:23:52.444Z,8.10
2018-11-23T12:26:20.869Z,8.10
2018-11-23T12:28:49.279Z,8.00
2018-11-23T12:31:17.714Z,8.10
2018-11-23T12:33:46.129Z,8.10
2018-11-23T12:36:14.515Z,8.20
2018-11-23T12:38:43.217Z,8.10
2018-11-23T12:41:11.296Z,8.10
2018-11-23T12:43:39.707Z,8.10
2018-11-23T12:46:08.117Z,8.10
2018-11-23T12:48:36.496Z,8.10
2018-11-23T12:51:05.013Z,8.20
2018-11-23T12:53:33.493Z,8.30
2018-11-23T12:56:01.935Z,8.30
2018-11-23T12:58:30.324Z,8.20
2018-11-23T13:00:58.715Z,8.30
2018-11-23T13:03:27.084Z,8.30
2018-11-23T13:05:55.479Z,8.40
2018-11-23T13:08:23.848Z,8.40
2018-11-23T13:10:52.261Z,8.40
2018-11-23T13:13:20.625Z,8.40
2018-11-23T13:15:49.160Z,8.40
2018-11-23T13:18:17.538Z,8.50
2018-11-23T13:20:45.930Z,8.40
2018-11-23T13:23:14.311Z,8.50
2018-11-23T13:25:42.721Z,8.40
2018-11-23T13:28:11.096Z,8.40
2018-11-23T13:30:39.512Z,8.50
2018-11-23T13:33:07.883Z,8.60
2018-11-23T13:35:36.304Z,8.50
2018-11-23T13:38:04.933Z,8.60
2018-11-23T13:40:33.336Z,8.70
2018-11-23T13:43:01.805Z,8.70
2018-11-23T13:45:32.672Z,8.80
2018-11-23T13:48:01.065Z,8.70
2018-11-23T13:50:29.689Z,8.70
2018-11-23T13:52:59.580Z,8.70
2018-11-23T13:55:27.993Z,8.70
2018-11-23T13:57:56.372Z,8.60
2018-11-23T14:00:27.913Z,8.60
2018-11-23T14:02:56.283Z,8.60
2018-11-23T14:05:26.161Z,8.60
2018-11-23T14:07:56.111Z,8.60
2018-11-23T14:10:25.601Z,8.50
2018-11-23T14:12:54.070Z,8.60
2018-11-23T14:15:24.609Z,8.60
2018-11-23T14:17:54.025Z,8.60
2018-11-23T14:20:23.341Z,8.60
2018-11-23T14:22:51.744Z,8.60
2018-11-23T14:25:21.545Z,8.60
2018-11-23T14:27:50.503Z,8.50
2018-11-23T14:30:21.621Z,8.50
2018-11-23T14:32:50.349Z,8.40
2018-11-23T14:35:20.300Z,8.50
2018-11-23T14:37:49.561Z,8.30
2018-11-23T14:40:18.029Z,8.30
2018-11-23T14:42:47.452Z,8.20
2018-11-23T14:45:18.476Z,8.10
2018-11-23T14:47:47.372Z,7.90
2018-11-23T14:50:18.127Z,7.80
2018-11-23T14:52:47.815Z,7.70
2018-11-23T14:55:16.529Z,7.60
2018-11-23T14:57:45.302Z,7.50
2018-11-23T15:00:19.213Z,7.50
2018-11-23T15:02:48.832Z,7.40
2018-11-23T15:05:17.712Z,7.30
2018-11-23T15:07:46.309Z,7.30
2018-11-23T15:10:16.001Z,7.20
2018-11-23T15:12:55.699Z,7.00
2018-11-23T15:15:26.205Z,6.90
2018-11-23T15:17:55.181Z,6.80
2018-11-23T15:20:40.669Z,6.70
2018-11-23T15:23:13.640Z,6.60
2018-11-23T15:25:42.095Z,6.50
2018-11-23T15:28:11.304Z,6.50
2018-11-23T15:30:40.572Z,6.40
2018-11-23T15:33:10.347Z,6.20
2018-11-23T15:35:39.343Z,6.10
2018-11-23T15:38:10.218Z,6.10
2018-11-23T15:40:37.711Z,6.00
2018-11-23T15:43:07.476Z,6.00
2018-11-23T15:45:36.308Z,5.90
2018-11-23T15:48:05.164Z,5.80
2018-11-23T15:50:34.921Z,5.80
2018-11-23T15:53:03.426Z,5.80
2018-11-23T15:55:33.124Z,5.70
2018-11-23T15:58:02.945Z,5.60
2018-11-23T16:00:35.713Z,5.50
2018-11-23T16:03:04.409Z,5.50
2018-11-23T16:05:32.839Z,5.40
2018-11-23T16:08:02.908Z,5.40
2018-11-23T16:10:38.232Z,5.30
2018-11-23T16:13:11.374Z,5.20
2018-11-23T16:15:36.668Z,5.10
2018-11-23T16:18:05.560Z,5.10
2018-11-23T16:20:36.337Z,4.90
2018-11-23T16:23:06.184Z,4.90
2018-11-23T16:25:34.753Z,4.90
2018-11-23T16:28:04.590Z,4.80
2018-11-23T16:30:37.357Z,4.70
2018-11-23T16:33:07.276Z,4.60
2018-11-23T16:35:36.873Z,4.60
2018-11-23T16:38:07.020Z,4.60
2018-11-23T16:40:36.909Z,4.60
2018-11-23T16:43:06.751Z,4.50
2018-11-23T16:45:35.913Z,4.50
2018-11-23T16:48:05.536Z,4.50
2018-11-23T16:50:33.984Z,4.40
2018-11-23T16:53:02.804Z,4.40
2018-11-23T16:55:31.331Z,4.40
2018-11-23T16:58:01.149Z,4.40
2018-11-23T17:00:30.706Z,4.40
2018-11-23T17:03:00.537Z,4.40
2018-11-23T17:05:30.420Z,4.50
2018-11-23T17:07:58.827Z,4.40
2018-11-23T17:10:27.241Z,4.40
2018-11-23T17:12:55.652Z,4.30
2018-11-23T17:15:25.478Z,4.30
2018-11-23T17:17:53.903Z,4.20
2018-11-23T17:20:25.596Z,4.30
2018-11-23T17:22:55.044Z,4.20
2018-11-23T17:25:24.308Z,4.20
2018-11-23T17:27:53.421Z,4.20
2018-11-23T17:30:24.040Z,4.20
2018-11-23T17:32:52.508Z,4.20
2018-11-23T17:35:21.118Z,4.10
2018-11-23T17:37:49.518Z,4.10
2018-11-23T17:40:19.456Z,4.10
2018-11-23T17:42:47.876Z,4.10
2018-11-23T17:45:20.013Z,4.10
2018-11-23T17:47:48.886Z,4.10
2018-11-23T17:50:18.656Z,4.00
2018-11-23T17:52:47.583Z,4.00
2018-11-23T17:55:16.059Z,4.00
2018-11-23T17:57:45.126Z,4.00
2018-11-23T18:00:16.312Z,4.00
2018-11-23T18:02:45.263Z,3.90
2018-11-23T18:05:14.892Z,3.90
2018-11-23T18:07:43.345Z,3.90
2018-11-23T18:10:14.113Z,3.80
2018-11-23T18:12:42.717Z,3.80
2018-11-23T18:15:14.171Z,3.80
2018-11-23T18:17:42.740Z,3.80
2018-11-23T18:20:14.935Z,3.80
2018-11-23T18:22:43.666Z,3.80
2018-11-23T18:25:14.297Z,3.80
2018-11-23T18:27:43.496Z,3.70
2018-11-23T18:30:12.684Z,3.60
2018-11-23T18:32:41.117Z,3.60
2018-11-23T18:35:11.049Z,3.60
2018-11-23T18:37:39.441Z,3.60
2018-11-23T18:40:11.296Z,3.60
2018-11-23T18:42:39.666Z,3.60
2018-11-23T18:45:11.326Z,3.70
2018-11-23T18:47:39.963Z,3.60
2018-11-23T18:50:10.052Z,3.60
2018-11-23T18:52:38.417Z,3.60
2018-11-23T18:55:07.411Z,3.60
2018-11-23T18:57:35.783Z,3.60
2018-11-23T19:00:04.265Z,3.60
2018-11-23T19:02:32.651Z,3.60
2018-11-23T19:05:01.050Z,3.60
2018-11-23T19:07:29.419Z,3.60
2018-11-23T19:09:57.828Z,3.60
2018-11-23T19:12:26.224Z,3.60
2018-11-23T19:14:54.625Z,3.60
2018-11-23T19:17:23.020Z,3.50
2018-11-23T19:19:51.444Z,3.60
2018-11-23T19:22:19.825Z,3.60
2018-11-23T19:24:48.226Z,3.60
2018-11-23T19:27:16.614Z,3.60
2018-11-23T19:29:45.009Z,3.70
2018-11-23T19:32:13.437Z,3.70
2018-11-23T19:34:41.832Z,3.70
2018-11-23T19:37:10.194Z,3.70
2018-11-23T19:39:38.578Z,3.60
2018-11-23T19:42:07.000Z,3.60
2018-11-23T19:44:35.447Z,3.60
2018-11-23T19:47:03.855Z,3.60
2018-11-23T19:49:32.244Z,3.60
2018-11-23T19:52:00.616Z,3.60
2018-11-23T19:54:29.005Z,3.60
2018-11-23T19:56:57.380Z,3.60
2018-11-23T19:59:25.781Z,3.60
2018-11-23T20:01:54.160Z,3.60
2018-11-23T20:04:22.595Z,3.70
2018-11-23T20:06:50.949Z,3.70
2018-11-23T20:09:19.341Z,3.70
2018-11-23T20:11:47.775Z,3.70
2018-11-23T20:14:16.164Z,3.70
2018-11-23T20:16:44.540Z,3.70
2018-11-23T20:19:12.933Z,3.70
2018-11-23T20:21:41.306Z,3.70
2018-11-23T20:24:09.709Z,3.70
2018-11-23T20:26:38.084Z,3.70
2018-11-23T20:29:06.567Z,3.80
2018-11-23T20:31:34.932Z,3.80
2018-11-23T20:34:03.339Z,3.80
2018-11-23T20:36:31.733Z,3.70
2018-11-23T20:39:00.128Z,3.70
2018-11-23T20:41:28.515Z,3.70
2018-11-23T20:43:56.914Z,3.70
2018-11-23T20:46:25.300Z,3.70
2018-11-23T20:48:53.706Z,3.70
2018-11-23T20:51:22.101Z,3.80
2018-11-23T20:53:50.542Z,3.80
2018-11-23T20:56:18.946Z,3.80
2018-11-23T20:58:47.313Z,3.80
2018-11-23T21:01:15.718Z,3.80
2018-11-23T21:03:44.093Z,3.80
2018-11-23T21:06:12.483Z,3.80
2018-11-23T21:08:40.901Z,3.90
2018-11-23T21:11:09.296Z,3.90
2018-11-23T21:13:37.669Z,3.90
2018-11-23T21:16:06.184Z,3.80
2018-11-23T21:18:34.563Z,3.80
2018-11-23T21:21:02.986Z,3.80
2018-11-23T21:23:31.368Z,3.80
2018-11-23T21:25:59.789Z,3.80
2018-11-23T21:28:28.190Z,3.80
2018-11-23T21:30:56.666Z,3.80
2018-11-23T21:33:25.066Z,3.80
2018-11-23T21:35:53.500Z,3.80
2018-11-23T21:38:21.876Z,3.80
2018-11-23T21:40:50.329Z,3.80
2018-11-23T21:43:18.717Z,3.80
2018-11-23T21:45:47.178Z,3.80
2018-11-23T21:48:15.580Z,3.70
2018-11-23T21:50:44.139Z,3.70
2018-11-23T21:53:12.521Z,3.70
2018-11-23T21:55:40.912Z,3.80
2018-11-23T21:58:09.297Z,3.80
2018-11-23T22:00:37.730Z,3.80
2018-11-23T22:03:06.145Z,3.80
2018-11-23T22:05:34.648Z,3.80
2018-11-23T22:08:03.065Z,3.80
2018-11-23T22:10:31.461Z,3.80
2018-11-23T22:12:59.871Z,3.80
2018-11-23T22:15:28.266Z,3.80
2018-11-23T22:17:57.338Z,3.70
2018-11-23T22:20:26.123Z,3.80
2018-11-23T22:22:54.538Z,3.80
2018-11-23T22:25:23.610Z,3.80
2018-11-23T22:27:52.044Z,3.70
2018-11-23T22:30:26.817Z,3.80
2018-11-23T22:32:55.193Z,3.80
2018-11-23T22:35:23.638Z,3.70
2018-11-23T22:37:52.033Z,3.80
2018-11-23T22:40:21.076Z,3.80
2018-11-23T22:42:51.609Z,3.80
2018-11-23T22:45:20.092Z,3.70
2018-11-23T22:47:48.549Z,3.70
2018-11-23T22:50:18.775Z,3.70
2018-11-23T22:52:47.818Z,3.80
2018-11-23T22:55:16.380Z,3.80
2018-11-23T22:57:44.774Z,3.70
2018-11-23T23:00:27.429Z,3.70
2018-11-23T23:02:55.792Z,3.80
2018-11-23T23:05:24.570Z,3.80
2018-11-23T23:07:52.939Z,3.80
2018-11-23T23:10:21.336Z,3.70
2018-11-23T23:12:49.718Z,3.70
2018-11-23T23:15:18.131Z,3.80
2018-11-23T23:17:46.549Z,3.80
2018-11-23T23:20:16.419Z,3.80
2018-11-23T23:22:44.808Z,3.80
2018-11-23T23:25:13.517Z,3.80
2018-11-23T23:27:41.917Z,3.80
2018-11-23T23:30:12.313Z,3.80
2018-11-23T23:32:40.749Z,3.90
2018-11-23T23:35:10.193Z,3.90
2018-11-23T23:37:38.720Z,3.90
2018-11-23T23:40:08.777Z,4.00
2018-11-23T23:42:37.192Z,3.90
2018-11-23T23:45:13.945Z,3.90
2018-11-23T23:47:42.322Z,4.00
2018-11-23T23:50:12.813Z,3.90
2018-11-23T23:52:41.196Z,3.90
2018-11-23T23:55:10.220Z,3.80
2018-11-23T23:57:39.528Z,3.80
